sensor_id;sensor_type;location;lat;lon;timestamp;P1;durP1;ratioP1;P2;durP2;ratioP2
58302;SDS011;44109;52.398;7.024;2022-09-13T00:01:43;10.70;;;7.63;;
58302;SDS011;44109;52.398;7.024;2022-09-13T00:04:11;10.77;;;7.32;;
58302;SDS011;44109;52.398;7.024;2022-09-13T00:06:38;9.18;;;7.07;;
58302;SDS011;44109;52.398;7.024;2022-09-13T00:09:07;10.80;;;7.47;;
58302;SDS011;44109;52.398;7.024;2022-09-13T00:11:34;10.32;;;7.57;;
58302;SDS011;44109;52.398;7.024;2022-09-13T00:14:02;10.25;;;7.60;;
58302;SDS011;44109;52.398;7.024;2022-09-13T00:16:30;10.13;;;7.28;;
58302;SDS011;44109;52.398;7.024;2022-09-13T00:18:58;9.50;;;6.80;;
58302;SDS011;44109;52.398;7.024;2022-09-13T00:21:26;12.13;;;7.20;;
58302;SDS011;44109;52.398;7.024;2022-09-13T00:23:54;12.82;;;7.97;;
58302;SDS011;44109;52.398;7.024;2022-09-13T00:26:23;9.23;;;7.13;;
58302;SDS011;44109;52.398;7.024;2022-09-13T00:28:54;9.57;;;7.32;;
58302;SDS011;44109;52.398;7.024;2022-09-13T00:31:25;11.15;;;7.68;;
58302;SDS011;44109;52.398;7.024;2022-09-13T00:33:54;10.85;;;8.00;;
58302;SDS011;44109;52.398;7.024;2022-09-13T00:36:24;9.85;;;7.25;;
58302;SDS011;44109;52.398;7.024;2022-09-13T00:38:52;10.45;;;7.43;;
58302;SDS011;44109;52.398;7.024;2022-09-13T00:41:20;9.88;;;7.13;;
58302;SDS011;44109;52.398;7.024;2022-09-13T00:43:52;11.23;;;8.77;;
58302;SDS011;44109;52.398;7.024;2022-09-13T00:46:24;12.77;;;9.15;;
58302;SDS011;44109;52.398;7.024;2022-09-13T00:49:02;11.27;;;8.02;;
58302;SDS011;44109;52.398;7.024;2022-09-13T00:51:40;12.75;;;8.98;;
58302;SDS011;44109;52.398;7.024;2022-09-13T00:54:15;15.43;;;10.70;;
58302;SDS011;44109;52.398;7.024;2022-09-13T00:56:49;13.00;;;10.50;;
58302;SDS011;44109;52.398;7.024;2022-09-13T00:59:25;12.68;;;10.20;;
58302;SDS011;44109;52.398;7.024;2022-09-13T01:02:00;12.13;;;9.48;;
58302;SDS011;44109;52.398;7.024;2022-09-13T01:04:29;14.95;;;11.43;;
58302;SDS011;44109;52.398;7.024;2022-09-13T01:07:03;13.77;;;10.70;;
58302;SDS011;44109;52.398;7.024;2022-09-13T01:09:38;14.55;;;10.23;;
58302;SDS011;44109;52.398;7.024;2022-09-13T01:14:51;13.90;;;10.50;;
58302;SDS011;44109;52.398;7.024;2022-09-13T01:17:21;17.45;;;11.75;;
58302;SDS011;44109;52.398;7.024;2022-09-13T01:19:48;14.25;;;10.02;;
58302;SDS011;44109;52.398;7.024;2022-09-13T01:29:43;12.80;;;10.40;;
58302;SDS011;44109;52.398;7.024;2022-09-13T01:35:58;15.40;;;11.63;;
58302;SDS011;44109;52.398;7.024;2022-09-13T01:38:52;18.70;;;12.23;;
58302;SDS011;44109;52.398;7.024;2022-09-13T01:41:32;15.73;;;10.85;;
58302;SDS011;44109;52.398;7.024;2022-09-13T01:44:18;17.73;;;10.95;;
58302;SDS011;44109;52.398;7.024;2022-09-13T01:47:01;15.20;;;10.55;;
58302;SDS011;44109;52.398;7.024;2022-09-13T01:49:42;14.13;;;9.70;;
58302;SDS011;44109;52.398;7.024;2022-09-13T01:52:20;13.82;;;9.82;;
58302;SDS011;44109;52.398;7.024;2022-09-13T01:55:02;15.88;;;10.73;;
58302;SDS011;44109;52.398;7.024;2022-09-13T01:57:40;14.55;;;11.75;;
58302;SDS011;44109;52.398;7.024;2022-09-13T02:00:17;13.63;;;8.40;;
58302;SDS011;44109;52.398;7.024;2022-09-13T02:02:46;15.68;;;10.13;;
58302;SDS011;44109;52.398;7.024;2022-09-13T02:05:21;14.07;;;9.75;;
58302;SDS011;44109;52.398;7.024;2022-09-13T02:07:58;16.75;;;11.10;;
58302;SDS011;44109;52.398;7.024;2022-09-13T02:10:34;14.77;;;9.73;;
58302;SDS011;44109;52.398;7.024;2022-09-13T02:13:09;14.25;;;10.60;;
58302;SDS011;44109;52.398;7.024;2022-09-13T02:15:44;13.15;;;9.40;;
58302;SDS011;44109;52.398;7.024;2022-09-13T02:18:17;13.82;;;10.10;;
58302;SDS011;44109;52.398;7.024;2022-09-13T02:20:51;13.10;;;9.40;;
58302;SDS011;44109;52.398;7.024;2022-09-13T02:23:28;15.45;;;9.48;;
58302;SDS011;44109;52.398;7.024;2022-09-13T02:26:04;13.20;;;10.00;;
58302;SDS011;44109;52.398;7.024;2022-09-13T02:28:35;13.63;;;9.35;;
58302;SDS011;44109;52.398;7.024;2022-09-13T02:31:09;14.40;;;9.40;;
58302;SDS011;44109;52.398;7.024;2022-09-13T02:33:44;13.93;;;10.18;;
58302;SDS011;44109;52.398;7.024;2022-09-13T02:36:20;13.57;;;9.18;;
58302;SDS011;44109;52.398;7.024;2022-09-13T02:38:53;14.98;;;8.77;;
58302;SDS011;44109;52.398;7.024;2022-09-13T02:41:29;15.95;;;10.50;;
58302;SDS011;44109;52.398;7.024;2022-09-13T02:44:06;14.55;;;10.30;;
58302;SDS011;44109;52.398;7.024;2022-09-13T02:46:45;12.82;;;9.43;;
58302;SDS011;44109;52.398;7.024;2022-09-13T02:49:32;15.30;;;10.68;;
58302;SDS011;44109;52.398;7.024;2022-09-13T02:52:18;12.80;;;9.90;;
58302;SDS011;44109;52.398;7.024;2022-09-13T02:55:04;12.02;;;9.32;;
58302;SDS011;44109;52.398;7.024;2022-09-13T02:57:48;13.50;;;9.32;;
58302;SDS011;44109;52.398;7.024;2022-09-13T03:00:26;13.23;;;9.77;;
58302;SDS011;44109;52.398;7.024;2022-09-13T03:02:55;16.58;;;10.38;;
58302;SDS011;44109;52.398;7.024;2022-09-13T03:05:30;15.27;;;10.93;;
58302;SDS011;44109;52.398;7.024;2022-09-13T03:07:58;17.27;;;10.63;;
58302;SDS011;44109;52.398;7.024;2022-09-13T03:10:28;16.40;;;10.38;;
58302;SDS011;44109;52.398;7.024;2022-09-13T03:13:14;13.87;;;10.53;;
58302;SDS011;44109;52.398;7.024;2022-09-13T03:16:12;14.45;;;9.52;;
58302;SDS011;44109;52.398;7.024;2022-09-13T03:19:05;15.38;;;10.40;;
58302;SDS011;44109;52.398;7.024;2022-09-13T03:21:57;14.55;;;10.30;;
58302;SDS011;44109;52.398;7.024;2022-09-13T03:24:46;14.57;;;10.45;;
58302;SDS011;44109;52.398;7.024;2022-09-13T03:27:29;13.73;;;10.40;;
58302;SDS011;44109;52.398;7.024;2022-09-13T03:30:10;14.05;;;10.15;;
58302;SDS011;44109;52.398;7.024;2022-09-13T03:32:42;17.52;;;11.10;;
58302;SDS011;44109;52.398;7.024;2022-09-13T03:35:19;15.80;;;10.55;;
58302;SDS011;44109;52.398;7.024;2022-09-13T03:37:59;14.80;;;11.13;;
58302;SDS011;44109;52.398;7.024;2022-09-13T03:40:35;13.73;;;10.50;;
58302;SDS011;44109;52.398;7.024;2022-09-13T03:43:09;13.93;;;10.50;;
58302;SDS011;44109;52.398;7.024;2022-09-13T03:45:45;14.23;;;10.82;;
58302;SDS011;44109;52.398;7.024;2022-09-13T03:48:18;19.25;;;12.43;;
58302;SDS011;44109;52.398;7.024;2022-09-13T03:50:47;16.88;;;11.07;;
58302;SDS011;44109;52.398;7.024;2022-09-13T03:53:18;14.57;;;10.25;;
58302;SDS011;44109;52.398;7.024;2022-09-13T03:55:52;13.88;;;10.93;;
58302;SDS011;44109;52.398;7.024;2022-09-13T03:58:20;15.75;;;11.43;;
58302;SDS011;44109;52.398;7.024;2022-09-13T04:00:49;15.52;;;11.02;;
58302;SDS011;44109;52.398;7.024;2022-09-13T04:03:17;12.90;;;9.57;;
58302;SDS011;44109;52.398;7.024;2022-09-13T04:05:45;16.77;;;11.60;;
58302;SDS011;44109;52.398;7.024;2022-09-13T04:08:12;16.23;;;11.05;;
58302;SDS011;44109;52.398;7.024;2022-09-13T04:10:41;15.88;;;11.63;;
58302;SDS011;44109;52.398;7.024;2022-09-13T04:13:09;17.02;;;11.30;;
58302;SDS011;44109;52.398;7.024;2022-09-13T04:15:36;16.90;;;11.93;;
58302;SDS011;44109;52.398;7.024;2022-09-13T04:18:04;16.10;;;11.68;;
58302;SDS011;44109;52.398;7.024;2022-09-13T04:20:31;17.48;;;12.20;;
58302;SDS011;44109;52.398;7.024;2022-09-13T04:23:00;15.98;;;11.38;;
58302;SDS011;44109;52.398;7.024;2022-09-13T04:25:28;17.02;;;12.48;;
58302;SDS011;44109;52.398;7.024;2022-09-13T04:27:57;17.13;;;12.25;;
58302;SDS011;44109;52.398;7.024;2022-09-13T04:30:24;15.68;;;10.95;;
58302;SDS011;44109;52.398;7.024;2022-09-13T04:32:52;17.70;;;12.38;;
58302;SDS011;44109;52.398;7.024;2022-09-13T04:35:24;14.27;;;11.07;;
58302;SDS011;44109;52.398;7.024;2022-09-13T04:37:53;18.75;;;11.60;;
58302;SDS011;44109;52.398;7.024;2022-09-13T04:40:22;16.15;;;12.57;;
58302;SDS011;44109;52.398;7.024;2022-09-13T04:42:50;17.63;;;12.68;;
58302;SDS011;44109;52.398;7.024;2022-09-13T04:45:19;17.17;;;11.18;;
58302;SDS011;44109;52.398;7.024;2022-09-13T04:47:49;16.75;;;12.23;;
58302;SDS011;44109;52.398;7.024;2022-09-13T04:50:18;15.88;;;11.35;;
58302;SDS011;44109;52.398;7.024;2022-09-13T04:52:46;16.98;;;10.80;;
58302;SDS011;44109;52.398;7.024;2022-09-13T04:55:14;16.55;;;12.82;;
58302;SDS011;44109;52.398;7.024;2022-09-13T04:57:42;16.08;;;11.23;;
58302;SDS011;44109;52.398;7.024;2022-09-13T05:00:09;17.63;;;12.52;;
58302;SDS011;44109;52.398;7.024;2022-09-13T05:02:39;18.88;;;12.55;;
58302;SDS011;44109;52.398;7.024;2022-09-13T05:05:07;17.88;;;11.18;;
58302;SDS011;44109;52.398;7.024;2022-09-13T05:07:35;16.40;;;10.40;;
58302;SDS011;44109;52.398;7.024;2022-09-13T05:10:02;19.33;;;12.18;;
58302;SDS011;44109;52.398;7.024;2022-09-13T05:12:30;17.27;;;11.88;;
58302;SDS011;44109;52.398;7.024;2022-09-13T05:14:58;16.73;;;11.70;;
58302;SDS011;44109;52.398;7.024;2022-09-13T05:17:25;16.85;;;12.50;;
58302;SDS011;44109;52.398;7.024;2022-09-13T05:19:57;18.63;;;12.10;;
58302;SDS011;44109;52.398;7.024;2022-09-13T05:22:24;14.35;;;10.88;;
58302;SDS011;44109;52.398;7.024;2022-09-13T05:24:52;18.30;;;13.40;;
58302;SDS011;44109;52.398;7.024;2022-09-13T05:27:19;19.98;;;12.15;;
58302;SDS011;44109;52.398;7.024;2022-09-13T05:29:47;19.58;;;12.10;;
58302;SDS011;44109;52.398;7.024;2022-09-13T05:32:14;17.10;;;11.57;;
58302;SDS011;44109;52.398;7.024;2022-09-13T05:34:42;16.77;;;10.20;;
58302;SDS011;44109;52.398;7.024;2022-09-13T05:37:10;17.08;;;11.15;;
58302;SDS011;44109;52.398;7.024;2022-09-13T05:39:38;16.52;;;11.63;;
58302;SDS011;44109;52.398;7.024;2022-09-13T05:42:05;16.42;;;11.73;;
58302;SDS011;44109;52.398;7.024;2022-09-13T05:44:33;16.08;;;11.48;;
58302;SDS011;44109;52.398;7.024;2022-09-13T05:47:01;20.00;;;12.43;;
58302;SDS011;44109;52.398;7.024;2022-09-13T05:49:28;16.42;;;11.68;;
58302;SDS011;44109;52.398;7.024;2022-09-13T05:51:56;18.48;;;11.80;;
58302;SDS011;44109;52.398;7.024;2022-09-13T05:54:25;16.80;;;11.13;;
58302;SDS011;44109;52.398;7.024;2022-09-13T05:56:52;17.38;;;11.77;;
58302;SDS011;44109;52.398;7.024;2022-09-13T05:59:22;17.85;;;12.30;;
58302;SDS011;44109;52.398;7.024;2022-09-13T06:01:49;19.80;;;12.65;;
58302;SDS011;44109;52.398;7.024;2022-09-13T06:04:17;18.75;;;13.13;;
58302;SDS011;44109;52.398;7.024;2022-09-13T06:06:44;18.73;;;13.23;;
58302;SDS011;44109;52.398;7.024;2022-09-13T06:09:12;20.52;;;15.27;;
58302;SDS011;44109;52.398;7.024;2022-09-13T06:11:41;20.38;;;13.75;;
58302;SDS011;44109;52.398;7.024;2022-09-13T06:14:08;21.88;;;15.30;;
58302;SDS011;44109;52.398;7.024;2022-09-13T06:16:36;24.55;;;16.45;;
58302;SDS011;44109;52.398;7.024;2022-09-13T06:19:04;25.05;;;17.42;;
58302;SDS011;44109;52.398;7.024;2022-09-13T06:21:31;21.75;;;15.25;;
58302;SDS011;44109;52.398;7.024;2022-09-13T06:23:59;22.25;;;16.45;;
58302;SDS011;44109;52.398;7.024;2022-09-13T06:26:27;23.02;;;16.95;;
58302;SDS011;44109;52.398;7.024;2022-09-13T06:28:56;22.05;;;15.93;;
58302;SDS011;44109;52.398;7.024;2022-09-13T06:31:24;23.10;;;15.45;;
58302;SDS011;44109;52.398;7.024;2022-09-13T06:33:54;22.52;;;16.33;;
58302;SDS011;44109;52.398;7.024;2022-09-13T06:36:25;25.73;;;19.10;;
58302;SDS011;44109;52.398;7.024;2022-09-13T06:38:52;23.55;;;16.92;;
58302;SDS011;44109;52.398;7.024;2022-09-13T06:41:22;21.25;;;16.15;;
58302;SDS011;44109;52.398;7.024;2022-09-13T06:43:52;22.75;;;16.45;;
58302;SDS011;44109;52.398;7.024;2022-09-13T06:46:24;22.02;;;15.38;;
58302;SDS011;44109;52.398;7.024;2022-09-13T06:48:53;21.95;;;15.73;;
58302;SDS011;44109;52.398;7.024;2022-09-13T06:51:23;21.63;;;15.75;;
58302;SDS011;44109;52.398;7.024;2022-09-13T06:53:51;24.70;;;17.17;;
58302;SDS011;44109;52.398;7.024;2022-09-13T06:56:21;21.25;;;14.73;;
58302;SDS011;44109;52.398;7.024;2022-09-13T06:58:50;22.15;;;16.92;;
58302;SDS011;44109;52.398;7.024;2022-09-13T07:01:24;23.60;;;15.93;;
58302;SDS011;44109;52.398;7.024;2022-09-13T07:03:56;22.02;;;14.63;;
58302;SDS011;44109;52.398;7.024;2022-09-13T07:06:27;20.98;;;16.33;;
58302;SDS011;44109;52.398;7.024;2022-09-13T07:08:59;23.00;;;15.95;;
58302;SDS011;44109;52.398;7.024;2022-09-13T07:11:29;21.63;;;16.00;;
58302;SDS011;44109;52.398;7.024;2022-09-13T07:14:00;23.02;;;16.48;;
58302;SDS011;44109;52.398;7.024;2022-09-13T07:16:28;21.05;;;15.57;;
58302;SDS011;44109;52.398;7.024;2022-09-13T07:18:59;22.25;;;17.17;;
58302;SDS011;44109;52.398;7.024;2022-09-13T07:21:30;19.67;;;14.73;;
58302;SDS011;44109;52.398;7.024;2022-09-13T07:23:59;20.50;;;14.40;;
58302;SDS011;44109;52.398;7.024;2022-09-13T07:26:27;24.17;;;17.50;;
58302;SDS011;44109;52.398;7.024;2022-09-13T07:28:57;22.83;;;17.55;;
58302;SDS011;44109;52.398;7.024;2022-09-13T07:31:30;22.55;;;16.20;;
58302;SDS011;44109;52.398;7.024;2022-09-13T07:34:00;22.77;;;16.08;;
58302;SDS011;44109;52.398;7.024;2022-09-13T07:36:30;21.63;;;15.45;;
58302;SDS011;44109;52.398;7.024;2022-09-13T07:39:01;23.65;;;15.80;;
58302;SDS011;44109;52.398;7.024;2022-09-13T07:41:31;19.73;;;14.98;;
58302;SDS011;44109;52.398;7.024;2022-09-13T07:44:01;23.63;;;16.00;;
58302;SDS011;44109;52.398;7.024;2022-09-13T07:46:31;24.27;;;14.48;;
58302;SDS011;44109;52.398;7.024;2022-09-13T07:49:01;20.17;;;12.93;;
58302;SDS011;44109;52.398;7.024;2022-09-13T07:51:29;19.00;;;13.57;;
58302;SDS011;44109;52.398;7.024;2022-09-13T07:53:59;18.17;;;13.07;;
58302;SDS011;44109;52.398;7.024;2022-09-13T07:56:30;15.38;;;11.65;;
58302;SDS011;44109;52.398;7.024;2022-09-13T07:59:02;16.50;;;13.10;;
58302;SDS011;44109;52.398;7.024;2022-09-13T08:01:33;17.95;;;13.07;;
58302;SDS011;44109;52.398;7.024;2022-09-13T08:04:03;18.13;;;13.52;;
58302;SDS011;44109;52.398;7.024;2022-09-13T08:06:33;16.00;;;11.05;;
58302;SDS011;44109;52.398;7.024;2022-09-13T08:09:04;15.05;;;11.90;;
58302;SDS011;44109;52.398;7.024;2022-09-13T08:11:35;15.82;;;11.68;;
58302;SDS011;44109;52.398;7.024;2022-09-13T08:14:06;16.70;;;12.20;;
58302;SDS011;44109;52.398;7.024;2022-09-13T08:16:37;14.15;;;10.82;;
58302;SDS011;44109;52.398;7.024;2022-09-13T08:19:06;14.27;;;10.15;;
58302;SDS011;44109;52.398;7.024;2022-09-13T08:21:38;15.90;;;10.85;;
58302;SDS011;44109;52.398;7.024;2022-09-13T08:24:10;13.57;;;10.30;;
58302;SDS011;44109;52.398;7.024;2022-09-13T08:26:41;16.48;;;11.18;;
58302;SDS011;44109;52.398;7.024;2022-09-13T08:29:11;12.82;;;9.02;;
58302;SDS011;44109;52.398;7.024;2022-09-13T08:31:40;14.00;;;10.05;;
58302;SDS011;44109;52.398;7.024;2022-09-13T08:34:09;13.13;;;8.98;;
58302;SDS011;44109;52.398;7.024;2022-09-13T08:36:39;12.52;;;9.15;;
58302;SDS011;44109;52.398;7.024;2022-09-13T08:39:07;13.68;;;9.68;;
58302;SDS011;44109;52.398;7.024;2022-09-13T08:44:39;10.40;;;8.40;;
58302;SDS011;44109;52.398;7.024;2022-09-13T08:50:10;11.13;;;7.50;;
58302;SDS011;44109;52.398;7.024;2022-09-13T08:52:45;10.52;;;7.22;;
58302;SDS011;44109;52.398;7.024;2022-09-13T08:55:26;11.32;;;7.40;;
58302;SDS011;44109;52.398;7.024;2022-09-13T08:58:14;12.15;;;7.10;;
58302;SDS011;44109;52.398;7.024;2022-09-13T09:01:04;9.82;;;6.65;;
58302;SDS011;44109;52.398;7.024;2022-09-13T09:03:47;8.75;;;6.57;;
58302;SDS011;44109;52.398;7.024;2022-09-13T09:06:24;8.68;;;5.38;;
58302;SDS011;44109;52.398;7.024;2022-09-13T09:08:52;6.45;;;4.22;;
58302;SDS011;44109;52.398;7.024;2022-09-13T09:11:30;8.43;;;5.20;;
58302;SDS011;44109;52.398;7.024;2022-09-13T09:14:05;7.57;;;4.40;;
58302;SDS011;44109;52.398;7.024;2022-09-13T09:16:46;7.05;;;4.50;;
58302;SDS011;44109;52.398;7.024;2022-09-13T09:19:20;5.63;;;3.92;;
58302;SDS011;44109;52.398;7.024;2022-09-13T09:21:55;7.05;;;4.35;;
58302;SDS011;44109;52.398;7.024;2022-09-13T09:24:24;6.57;;;4.22;;
58302;SDS011;44109;52.398;7.024;2022-09-13T09:26:52;6.50;;;3.75;;
58302;SDS011;44109;52.398;7.024;2022-09-13T09:29:23;4.45;;;2.92;;
58302;SDS011;44109;52.398;7.024;2022-09-13T09:32:02;5.20;;;3.00;;
58302;SDS011;44109;52.398;7.024;2022-09-13T09:34:47;4.10;;;2.35;;
58302;SDS011;44109;52.398;7.024;2022-09-13T09:37:37;4.63;;;2.50;;
58302;SDS011;44109;52.398;7.024;2022-09-13T09:40:10;2.78;;;1.95;;
58302;SDS011;44109;52.398;7.024;2022-09-13T09:42:42;2.95;;;2.13;;
58302;SDS011;44109;52.398;7.024;2022-09-13T09:45:18;3.53;;;2.05;;
58302;SDS011;44109;52.398;7.024;2022-09-13T09:47:55;2.17;;;1.45;;
58302;SDS011;44109;52.398;7.024;2022-09-13T09:50:31;2.00;;;1.38;;
58302;SDS011;44109;52.398;7.024;2022-09-13T09:53:05;2.42;;;1.20;;
58302;SDS011;44109;52.398;7.024;2022-09-13T09:55:41;2.45;;;0.77;;
58302;SDS011;44109;52.398;7.024;2022-09-13T09:58:13;1.50;;;0.80;;
58302;SDS011;44109;52.398;7.024;2022-09-13T10:00:50;2.13;;;0.90;;
58302;SDS011;44109;52.398;7.024;2022-09-13T10:03:23;3.10;;;1.05;;
58302;SDS011;44109;52.398;7.024;2022-09-13T10:06:02;3.47;;;1.00;;
58302;SDS011;44109;52.398;7.024;2022-09-13T10:08:33;2.55;;;0.90;;
58302;SDS011;44109;52.398;7.024;2022-09-13T10:11:03;1.73;;;0.93;;
58302;SDS011;44109;52.398;7.024;2022-09-13T10:13:33;4.68;;;1.15;;
58302;SDS011;44109;52.398;7.024;2022-09-13T10:16:03;2.63;;;0.77;;
58302;SDS011;44109;52.398;7.024;2022-09-13T10:18:50;3.35;;;0.90;;
58302;SDS011;44109;52.398;7.024;2022-09-13T10:21:22;3.38;;;0.98;;
58302;SDS011;44109;52.398;7.024;2022-09-13T10:23:53;4.57;;;1.08;;
58302;SDS011;44109;52.398;7.024;2022-09-13T10:26:47;2.20;;;1.27;;
58302;SDS011;44109;52.398;7.024;2022-09-13T10:29:15;3.10;;;1.08;;
58302;SDS011;44109;52.398;7.024;2022-09-13T10:31:44;2.03;;;0.70;;
58302;SDS011;44109;52.398;7.024;2022-09-13T10:34:20;3.13;;;0.85;;
58302;SDS011;44109;52.398;7.024;2022-09-13T10:36:54;1.55;;;0.80;;
58302;SDS011;44109;52.398;7.024;2022-09-13T10:39:25;2.60;;;0.70;;
58302;SDS011;44109;52.398;7.024;2022-09-13T10:41:59;2.28;;;0.70;;
58302;SDS011;44109;52.398;7.024;2022-09-13T10:44:31;1.70;;;0.80;;
58302;SDS011;44109;52.398;7.024;2022-09-13T10:47:09;2.90;;;0.70;;
58302;SDS011;44109;52.398;7.024;2022-09-13T10:49:47;2.60;;;1.27;;
58302;SDS011;44109;52.398;7.024;2022-09-13T10:52:28;4.20;;;0.80;;
58302;SDS011;44109;52.398;7.024;2022-09-13T10:58:13;5.28;;;0.90;;
58302;SDS011;44109;52.398;7.024;2022-09-13T11:04:06;2.90;;;0.80;;
58302;SDS011;44109;52.398;7.024;2022-09-13T11:07:27;2.17;;;0.60;;
58302;SDS011;44109;52.398;7.024;2022-09-13T11:10:31;2.88;;;0.95;;
58302;SDS011;44109;52.398;7.024;2022-09-13T11:13:13;4.55;;;1.02;;
58302;SDS011;44109;52.398;7.024;2022-09-13T11:15:57;1.35;;;0.40;;
58302;SDS011;44109;52.398;7.024;2022-09-13T11:18:48;2.55;;;0.65;;
58302;SDS011;44109;52.398;7.024;2022-09-13T11:21:52;2.42;;;0.70;;
58302;SDS011;44109;52.398;7.024;2022-09-13T11:24:47;7.63;;;1.13;;
58302;SDS011;44109;52.398;7.024;2022-09-13T11:27:38;2.53;;;1.02;;
58302;SDS011;44109;52.398;7.024;2022-09-13T11:30:22;2.92;;;1.10;;
58302;SDS011;44109;52.398;7.024;2022-09-13T11:33:04;2.03;;;0.70;;
58302;SDS011;44109;52.398;7.024;2022-09-13T11:36:09;1.33;;;0.60;;
58302;SDS011;44109;52.398;7.024;2022-09-13T11:39:07;1.52;;;0.70;;
58302;SDS011;44109;52.398;7.024;2022-09-13T11:41:50;2.25;;;0.70;;
58302;SDS011;44109;52.398;7.024;2022-09-13T11:47:44;3.60;;;0.88;;
58302;SDS011;44109;52.398;7.024;2022-09-13T11:50:41;2.50;;;1.00;;
58302;SDS011;44109;52.398;7.024;2022-09-13T11:56:25;4.05;;;1.13;;
58302;SDS011;44109;52.398;7.024;2022-09-13T11:59:04;3.05;;;1.15;;
58302;SDS011;44109;52.398;7.024;2022-09-13T12:01:46;3.17;;;0.90;;
58302;SDS011;44109;52.398;7.024;2022-09-13T12:04:22;1.63;;;0.65;;
58302;SDS011;44109;52.398;7.024;2022-09-13T12:06:58;2.42;;;0.75;;
58302;SDS011;44109;52.398;7.024;2022-09-13T12:09:31;1.63;;;0.60;;
58302;SDS011;44109;52.398;7.024;2022-09-13T12:12:05;3.30;;;0.70;;
58302;SDS011;44109;52.398;7.024;2022-09-13T12:14:40;2.22;;;0.75;;
58302;SDS011;44109;52.398;7.024;2022-09-13T12:17:22;1.17;;;0.50;;
58302;SDS011;44109;52.398;7.024;2022-09-13T12:19:56;3.60;;;1.05;;
58302;SDS011;44109;52.398;7.024;2022-09-13T12:22:29;1.70;;;0.70;;
58302;SDS011;44109;52.398;7.024;2022-09-13T12:27:35;2.22;;;0.93;;
58302;SDS011;44109;52.398;7.024;2022-09-13T12:30:13;2.22;;;1.13;;
58302;SDS011;44109;52.398;7.024;2022-09-13T12:32:44;2.40;;;0.70;;
58302;SDS011;44109;52.398;7.024;2022-09-13T12:35:16;2.88;;;1.30;;
58302;SDS011;44109;52.398;7.024;2022-09-13T12:41:14;2.55;;;0.60;;
58302;SDS011;44109;52.398;7.024;2022-09-13T12:50:25;5.05;;;0.60;;
58302;SDS011;44109;52.398;7.024;2022-09-13T12:53:24;1.27;;;0.77;;
58302;SDS011;44109;52.398;7.024;2022-09-13T12:56:27;2.58;;;0.70;;
58302;SDS011;44109;52.398;7.024;2022-09-13T12:59:30;3.50;;;1.08;;
58302;SDS011;44109;52.398;7.024;2022-09-13T13:02:29;1.50;;;0.63;;
58302;SDS011;44109;52.398;7.024;2022-09-13T13:05:04;0.93;;;0.40;;
58302;SDS011;44109;52.398;7.024;2022-09-13T13:07:50;1.85;;;0.60;;
58302;SDS011;44109;52.398;7.024;2022-09-13T13:10:25;3.05;;;0.60;;
58302;SDS011;44109;52.398;7.024;2022-09-13T13:13:08;1.13;;;0.40;;
58302;SDS011;44109;52.398;7.024;2022-09-13T13:16:02;2.53;;;0.80;;
58302;SDS011;44109;52.398;7.024;2022-09-13T13:18:47;1.88;;;0.50;;
58302;SDS011;44109;52.398;7.024;2022-09-13T13:33:25;1.30;;;0.60;;
58302;SDS011;44109;52.398;7.024;2022-09-13T13:35:56;4.13;;;0.75;;
58302;SDS011;44109;52.398;7.024;2022-09-13T13:38:49;1.80;;;0.45;;
58302;SDS011;44109;52.398;7.024;2022-09-13T13:41:37;2.03;;;0.80;;
58302;SDS011;44109;52.398;7.024;2022-09-13T13:51:13;1.45;;;0.30;;
58302;SDS011;44109;52.398;7.024;2022-09-13T13:53:55;2.50;;;0.40;;
58302;SDS011;44109;52.398;7.024;2022-09-13T13:56:50;2.63;;;0.50;;
58302;SDS011;44109;52.398;7.024;2022-09-13T13:59:21;1.02;;;0.40;;
58302;SDS011;44109;52.398;7.024;2022-09-13T14:01:54;5.50;;;0.93;;
58302;SDS011;44109;52.398;7.024;2022-09-13T14:07:42;1.00;;;0.40;;
58302;SDS011;44109;52.398;7.024;2022-09-13T14:10:53;1.58;;;0.60;;
58302;SDS011;44109;52.398;7.024;2022-09-13T14:13:40;3.70;;;0.88;;
58302;SDS011;44109;52.398;7.024;2022-09-13T14:16:28;3.38;;;0.55;;
58302;SDS011;44109;52.398;7.024;2022-09-13T14:19:16;1.60;;;0.65;;
58302;SDS011;44109;52.398;7.024;2022-09-13T14:22:06;1.45;;;0.40;;
58302;SDS011;44109;52.398;7.024;2022-09-13T14:24:41;1.98;;;0.60;;
58302;SDS011;44109;52.398;7.024;2022-09-13T14:27:14;2.92;;;0.73;;
58302;SDS011;44109;52.398;7.024;2022-09-13T14:29:49;2.17;;;0.60;;
58302;SDS011;44109;52.398;7.024;2022-09-13T14:32:20;3.20;;;0.82;;
58302;SDS011;44109;52.398;7.024;2022-09-13T14:34:53;2.00;;;0.50;;
58302;SDS011;44109;52.398;7.024;2022-09-13T14:37:26;2.80;;;0.70;;
58302;SDS011;44109;52.398;7.024;2022-09-13T14:39:58;1.00;;;0.40;;
58302;SDS011;44109;52.398;7.024;2022-09-13T14:42:37;3.70;;;0.60;;
58302;SDS011;44109;52.398;7.024;2022-09-13T14:45:12;1.65;;;0.60;;
58302;SDS011;44109;52.398;7.024;2022-09-13T14:47:45;1.25;;;0.30;;
58302;SDS011;44109;52.398;7.024;2022-09-13T14:50:22;1.13;;;0.63;;
58302;SDS011;44109;52.398;7.024;2022-09-13T14:52:55;1.83;;;0.60;;
58302;SDS011;44109;52.398;7.024;2022-09-13T14:55:27;1.37;;;0.43;;
58302;SDS011;44109;52.398;7.024;2022-09-13T14:58:03;0.90;;;0.63;;
58302;SDS011;44109;52.398;7.024;2022-09-13T15:00:45;0.88;;;0.30;;
58302;SDS011;44109;52.398;7.024;2022-09-13T15:03:18;0.98;;;0.43;;
58302;SDS011;44109;52.398;7.024;2022-09-13T15:05:50;3.40;;;0.80;;
58302;SDS011;44109;52.398;7.024;2022-09-13T15:11:13;1.48;;;0.63;;
58302;SDS011;44109;52.398;7.024;2022-09-13T15:13:59;2.28;;;0.45;;
58302;SDS011;44109;52.398;7.024;2022-09-13T15:16:51;1.45;;;0.60;;
58302;SDS011;44109;52.398;7.024;2022-09-13T15:19:34;1.08;;;0.50;;
58302;SDS011;44109;52.398;7.024;2022-09-13T15:22:12;1.80;;;0.90;;
58302;SDS011;44109;52.398;7.024;2022-09-13T15:24:51;1.63;;;0.70;;
58302;SDS011;44109;52.398;7.024;2022-09-13T15:27:22;1.30;;;0.50;;
58302;SDS011;44109;52.398;7.024;2022-09-13T15:29:54;2.30;;;0.93;;
58302;SDS011;44109;52.398;7.024;2022-09-13T15:32:30;1.40;;;0.43;;
58302;SDS011;44109;52.398;7.024;2022-09-13T15:35:00;2.28;;;0.40;;
58302;SDS011;44109;52.398;7.024;2022-09-13T15:37:29;2.40;;;0.70;;
58302;SDS011;44109;52.398;7.024;2022-09-13T15:40:09;2.17;;;0.50;;
58302;SDS011;44109;52.398;7.024;2022-09-13T15:42:46;2.08;;;0.60;;
58302;SDS011;44109;52.398;7.024;2022-09-13T15:45:15;1.75;;;0.50;;
58302;SDS011;44109;52.398;7.024;2022-09-13T15:47:45;2.13;;;0.43;;
58302;SDS011;44109;52.398;7.024;2022-09-13T15:50:18;1.73;;;0.47;;
58302;SDS011;44109;52.398;7.024;2022-09-13T15:52:49;1.13;;;0.45;;
58302;SDS011;44109;52.398;7.024;2022-09-13T15:55:17;1.20;;;0.63;;
58302;SDS011;44109;52.398;7.024;2022-09-13T15:57:44;3.45;;;0.60;;
58302;SDS011;44109;52.398;7.024;2022-09-13T16:00:16;2.50;;;0.60;;
58302;SDS011;44109;52.398;7.024;2022-09-13T16:02:47;7.07;;;1.23;;
58302;SDS011;44109;52.398;7.024;2022-09-13T16:05:15;3.40;;;0.65;;
58302;SDS011;44109;52.398;7.024;2022-09-13T16:07:43;2.67;;;0.57;;
58302;SDS011;44109;52.398;7.024;2022-09-13T16:10:13;5.07;;;1.10;;
58302;SDS011;44109;52.398;7.024;2022-09-13T16:12:44;1.98;;;0.40;;
58302;SDS011;44109;52.398;7.024;2022-09-13T16:15:12;3.08;;;0.55;;
58302;SDS011;44109;52.398;7.024;2022-09-13T16:17:41;2.90;;;0.50;;
58302;SDS011;44109;52.398;7.024;2022-09-13T16:20:12;1.02;;;0.35;;
58302;SDS011;44109;52.398;7.024;2022-09-13T16:22:41;1.90;;;0.65;;
58302;SDS011;44109;52.398;7.024;2022-09-13T16:25:10;1.23;;;0.38;;
58302;SDS011;44109;52.398;7.024;2022-09-13T16:27:39;2.45;;;0.50;;
58302;SDS011;44109;52.398;7.024;2022-09-13T16:30:08;1.80;;;0.57;;